sensor_id;sensor_type;location;lat;lon;timestamp;pressure;altitude;pressure_sealevel;temperature;humidity
8366;BME280;4220;42.502;24.188;2023-04-24T00:02:01;95123.22;;;8.62;100.00
8366;BME280;4220;42.502;24.188;2023-04-24T00:04:30;95120.25;;;8.32;100.00
8366;BME280;4220;42.502;24.188;2023-04-24T00:06:57;95110.88;;;8.23;100.00
8366;BME280;4220;42.502;24.188;2023-04-24T00:09:25;95063.19;;;8.05;100.00
8366;BME280;4220;42.502;24.188;2023-04-24T00:11:52;95103.97;;;8.42;100.00
8366;BME280;4220;42.502;24.188;2023-04-24T00:14:20;95096.59;;;8.50;100.00
8366;BME280;4220;42.502;24.188;2023-04-24T00:16:46;95104.28;;;8.65;100.00
8366;BME280;4220;42.502;24.188;2023-04-24T00:19:13;95102.25;;;8.74;100.00
8366;BME280;4220;42.502;24.188;2023-04-24T00:21:42;95100.41;;;8.74;100.00
8366;BME280;4220;42.502;24.188;2023-04-24T00:24:09;95087.38;;;8.73;100.00
8366;BME280;4220;42.502;24.188;2023-04-24T00:26:36;95098.13;;;8.78;100.00
8366;BME280;4220;42.502;24.188;2023-04-24T00:29:03;95103.38;;;8.91;100.00
8366;BME280;4220;42.502;24.188;2023-04-24T00:31:29;95099.72;;;8.92;100.00
8366;BME280;4220;42.502;24.188;2023-04-24T00:33:57;95103.56;;;8.96;100.00
8366;BME280;4220;42.502;24.188;2023-04-24T00:36:24;95099.31;;;8.88;100.00
8366;BME280;4220;42.502;24.188;2023-04-24T00:38:53;95099.13;;;8.83;100.00
8366;BME280;4220;42.502;24.188;2023-04-24T00:41:21;95094.50;;;8.79;100.00
8366;BME280;4220;42.502;24.188;2023-04-24T00:43:48;95096.69;;;8.88;100.00
8366;BME280;4220;42.502;24.188;2023-04-24T00:46:16;95055.09;;;8.57;100.00
8366;BME280;4220;42.502;24.188;2023-04-24T00:48:43;95107.47;;;8.80;100.00
8366;BME280;4220;42.502;24.188;2023-04-24T00:51:10;95096.72;;;8.82;100.00
8366;BME280;4220;42.502;24.188;2023-04-24T00:53:37;95105.03;;;8.92;100.00
8366;BME280;4220;42.502;24.188;2023-04-24T00:56:06;95091.66;;;8.74;100.00
8366;BME280;4220;42.502;24.188;2023-04-24T00:58:33;95112.06;;;8.53;100.00
8366;BME280;4220;42.502;24.188;2023-04-24T01:01:00;95112.72;;;8.36;100.00
8366;BME280;4220;42.502;24.188;2023-04-24T01:03:29;95071.06;;;8.18;100.00
8366;BME280;4220;42.502;24.188;2023-04-24T01:05:57;95107.81;;;8.52;100.00
8366;BME280;4220;42.502;24.188;2023-04-24T01:08:25;95094.94;;;8.63;100.00
8366;BME280;4220;42.502;24.188;2023-04-24T01:10:53;95091.28;;;8.64;100.00
8366;BME280;4220;42.502;24.188;2023-04-24T01:13:21;95087.22;;;8.61;100.00
8366;BME280;4220;42.502;24.188;2023-04-24T01:15:48;95084.19;;;8.64;100.00
8366;BME280;4220;42.502;24.188;2023-04-24T01:18:15;95089.38;;;8.77;100.00
8366;BME280;4220;42.502;24.188;2023-04-24T01:20:43;95071.09;;;8.76;100.00
8366;BME280;4220;42.502;24.188;2023-04-24T01:23:13;95076.56;;;8.81;100.00
8366;BME280;4220;42.502;24.188;2023-04-24T01:25:40;95075.47;;;8.57;100.00
8366;BME280;4220;42.502;24.188;2023-04-24T01:28:07;95051.16;;;8.22;100.00
8366;BME280;4220;42.502;24.188;2023-04-24T01:30:35;95075.53;;;8.11;100.00
8366;BME280;4220;42.502;24.188;2023-04-24T01:33:02;95073.94;;;8.10;100.00
8366;BME280;4220;42.502;24.188;2023-04-24T01:35:29;95062.16;;;8.00;100.00
8366;BME280;4220;42.502;24.188;2023-04-24T01:37:56;95060.47;;;8.18;100.00
8366;BME280;4220;42.502;24.188;2023-04-24T01:40:24;95062.09;;;8.26;100.00
8366;BME280;4220;42.502;24.188;2023-04-24T01:42:51;95064.75;;;8.19;100.00
8366;BME280;4220;42.502;24.188;2023-04-24T01:45:18;95069.91;;;7.88;100.00
8366;BME280;4220;42.502;24.188;2023-04-24T01:47:45;95067.28;;;7.55;100.00
8366;BME280;4220;42.502;24.188;2023-04-24T01:50:12;95059.78;;;7.39;100.00
8366;BME280;4220;42.502;24.188;2023-04-24T01:52:39;95045.97;;;7.44;100.00
8366;BME280;4220;42.502;24.188;2023-04-24T01:55:07;95059.97;;;7.70;100.00
8366;BME280;4220;42.502;24.188;2023-04-24T01:57:35;95057.72;;;7.67;100.00
8366;BME280;4220;42.502;24.188;2023-04-24T02:00:03;95056.91;;;7.80;100.00
8366;BME280;4220;42.502;24.188;2023-04-24T02:02:32;95017.34;;;7.60;100.00
8366;BME280;4220;42.502;24.188;2023-04-24T02:04:59;95051.78;;;8.05;100.00
8366;BME280;4220;42.502;24.188;2023-04-24T02:07:26;95043.84;;;8.11;100.00
8366;BME280;4220;42.502;24.188;2023-04-24T02:09:52;95045.03;;;8.28;100.00
8366;BME280;4220;42.502;24.188;2023-04-24T02:12:20;95047.66;;;8.41;100.00
8366;BME280;4220;42.502;24.188;2023-04-24T02:14:49;95037.09;;;8.41;100.00
8366;BME280;4220;42.502;24.188;2023-04-24T02:17:16;95042.41;;;8.35;100.00
8366;BME280;4220;42.502;24.188;2023-04-24T02:19:44;95044.19;;;8.41;100.00
8366;BME280;4220;42.502;24.188;2023-04-24T02:22:11;95040.75;;;8.40;100.00
8366;BME280;4220;42.502;24.188;2023-04-24T02:24:38;95032.88;;;8.27;100.00
8366;BME280;4220;42.502;24.188;2023-04-24T02:27:05;95040.41;;;8.30;100.00
8366;BME280;4220;42.502;24.188;2023-04-24T02:29:32;95038.53;;;8.24;100.00
8366;BME280;4220;42.502;24.188;2023-04-24T02:32:00;95032.25;;;8.25;100.00
8366;BME280;4220;42.502;24.188;2023-04-24T02:34:27;95035.31;;;8.22;100.00
8366;BME280;4220;42.502;24.188;2023-04-24T02:36:54;95012.97;;;8.12;100.00
8366;BME280;4220;42.502;24.188;2023-04-24T02:39:21;95036.94;;;8.30;100.00
8366;BME280;4220;42.502;24.188;2023-04-24T02:41:47;95037.13;;;8.35;100.00
8366;BME280;4220;42.502;24.188;2023-04-24T02:44:14;95032.44;;;8.37;100.00
8366;BME280;4220;42.502;24.188;2023-04-24T02:46:42;95029.59;;;8.32;100.00
8366;BME280;4220;42.502;24.188;2023-04-24T02:49:11;95034.06;;;8.31;100.00
8366;BME280;4220;42.502;24.188;2023-04-24T02:51:38;95031.44;;;8.25;100.00
8366;BME280;4220;42.502;24.188;2023-04-24T02:54:07;95024.94;;;8.14;100.00
8366;BME280;4220;42.502;24.188;2023-04-24T02:56:34;95041.41;;;8.16;100.00
8366;BME280;4220;42.502;24.188;2023-04-24T02:59:01;95035.53;;;8.01;100.00
8366;BME280;4220;42.502;24.188;2023-04-24T03:01:28;95037.81;;;7.98;100.00
8366;BME280;4220;42.502;24.188;2023-04-24T03:03:55;95034.94;;;7.99;100.00
8366;BME280;4220;42.502;24.188;2023-04-24T03:06:23;95032.09;;;7.94;100.00
8366;BME280;4220;42.502;24.188;2023-04-24T03:08:49;95029.28;;;7.96;100.00
8366;BME280;4220;42.502;24.188;2023-04-24T03:11:16;95029.06;;;7.84;100.00
8366;BME280;4220;42.502;24.188;2023-04-24T03:13:43;95036.00;;;7.65;100.00
8366;BME280;4220;42.502;24.188;2023-04-24T03:16:10;95035.81;;;7.34;100.00
8366;BME280;4220;42.502;24.188;2023-04-24T03:18:37;94976.56;;;6.97;100.00
8366;BME280;4220;42.502;24.188;2023-04-24T03:21:04;95034.53;;;6.91;100.00
8366;BME280;4220;42.502;24.188;2023-04-24T03:23:32;95041.28;;;7.00;100.00
8366;BME280;4220;42.502;24.188;2023-04-24T03:25:59;95027.91;;;7.14;100.00
8366;BME280;4220;42.502;24.188;2023-04-24T03:28:26;95034.41;;;7.32;100.00
8366;BME280;4220;42.502;24.188;2023-04-24T03:30:52;95043.72;;;7.47;100.00
8366;BME280;4220;42.502;24.188;2023-04-24T03:33:19;95035.22;;;7.52;100.00
8366;BME280;4220;42.502;24.188;2023-04-24T03:35:46;95040.88;;;7.62;100.00
8366;BME280;4220;42.502;24.188;2023-04-24T03:38:13;95048.41;;;7.65;100.00
8366;BME280;4220;42.502;24.188;2023-04-24T03:40:41;95028.94;;;7.46;100.00
8366;BME280;4220;42.502;24.188;2023-04-24T03:43:08;95053.06;;;7.50;100.00
8366;BME280;4220;42.502;24.188;2023-04-24T03:45:35;95043.31;;;7.57;100.00
8366;BME280;4220;42.502;24.188;2023-04-24T03:48:02;95041.91;;;7.61;100.00
8366;BME280;4220;42.502;24.188;2023-04-24T03:50:29;95037.84;;;7.65;100.00
8366;BME280;4220;42.502;24.188;2023-04-24T03:52:56;95049.00;;;7.60;100.00
8366;BME280;4220;42.502;24.188;2023-04-24T03:55:23;95041.91;;;7.74;100.00
8366;BME280;4220;42.502;24.188;2023-04-24T03:57:51;95046.56;;;7.85;100.00
8366;BME280;4220;42.502;24.188;2023-04-24T04:00:18;95049.22;;;7.46;100.00
8366;BME280;4220;42.502;24.188;2023-04-24T04:02:46;95037.84;;;7.19;100.00
8366;BME280;4220;42.502;24.188;2023-04-24T04:05:13;95032.94;;;6.96;100.00
8366;BME280;4220;42.502;24.188;2023-04-24T04:07:40;95031.97;;;7.17;100.00
8366;BME280;4220;42.502;24.188;2023-04-24T04:10:07;95045.56;;;7.47;100.00
8366;BME280;4220;42.502;24.188;2023-04-24T04:12:34;95041.50;;;7.24;100.00
8366;BME280;4220;42.502;24.188;2023-04-24T04:15:03;95052.47;;;7.48;100.00
8366;BME280;4220;42.502;24.188;2023-04-24T04:17:31;95060.19;;;7.56;100.00
8366;BME280;4220;42.502;24.188;2023-04-24T04:19:58;95051.06;;;7.52;100.00
8366;BME280;4220;42.502;24.188;2023-04-24T04:22:25;95056.50;;;7.83;100.00
8366;BME280;4220;42.502;24.188;2023-04-24T04:24:52;94993.16;;;7.70;100.00
8366;BME280;4220;42.502;24.188;2023-04-24T04:27:19;95053.16;;;8.33;100.00
8366;BME280;4220;42.502;24.188;2023-04-24T04:29:46;95059.19;;;8.53;100.00
8366;BME280;4220;42.502;24.188;2023-04-24T04:32:15;95047.72;;;8.73;100.00
8366;BME280;4220;42.502;24.188;2023-04-24T04:34:42;95042.78;;;8.83;100.00
8366;BME280;4220;42.502;24.188;2023-04-24T04:37:10;95037.63;;;8.94;100.00
8366;BME280;4220;42.502;24.188;2023-04-24T04:39:38;95043.91;;;9.06;100.00
8366;BME280;4220;42.502;24.188;2023-04-24T04:42:05;95045.44;;;9.14;100.00
8366;BME280;4220;42.502;24.188;2023-04-24T04:44:32;95036.28;;;9.16;100.00
8366;BME280;4220;42.502;24.188;2023-04-24T04:47:01;95052.66;;;9.32;100.00
8366;BME280;4220;42.502;24.188;2023-04-24T04:49:32;95055.13;;;9.27;100.00
8366;BME280;4220;42.502;24.188;2023-04-24T04:51:59;95057.91;;;9.13;100.00
8366;BME280;4220;42.502;24.188;2023-04-24T04:54:26;95050.75;;;9.14;100.00
8366;BME280;4220;42.502;24.188;2023-04-24T04:56:53;95053.91;;;9.29;100.00
8366;BME280;4220;42.502;24.188;2023-04-24T04:59:20;95054.72;;;9.30;100.00
8366;BME280;4220;42.502;24.188;2023-04-24T05:01:47;95051.09;;;9.24;100.00
8366;BME280;4220;42.502;24.188;2023-04-24T05:04:13;95038.41;;;9.33;100.00
8366;BME280;4220;42.502;24.188;2023-04-24T05:06:42;95049.13;;;9.44;100.00
8366;BME280;4220;42.502;24.188;2023-04-24T05:09:08;95040.09;;;9.27;100.00
8366;BME280;4220;42.502;24.188;2023-04-24T05:11:35;95040.31;;;9.50;100.00
8366;BME280;4220;42.502;24.188;2023-04-24T05:14:02;95032.41;;;9.68;98.90
8366;BME280;4220;42.502;24.188;2023-04-24T05:16:29;95028.81;;;9.88;99.33
8366;BME280;4220;42.502;24.188;2023-04-24T05:18:56;95035.50;;;10.08;98.92
8366;BME280;4220;42.502;24.188;2023-04-24T05:21:23;95032.38;;;10.18;98.39
8366;BME280;4220;42.502;24.188;2023-04-24T05:23:51;95035.72;;;10.31;97.21
8366;BME280;4220;42.502;24.188;2023-04-24T05:26:18;95031.81;;;10.34;97.14
8366;BME280;4220;42.502;24.188;2023-04-24T05:28:45;95034.50;;;10.09;99.13
8366;BME280;4220;42.502;24.188;2023-04-24T05:31:12;95032.88;;;10.08;100.00
8366;BME280;4220;42.502;24.188;2023-04-24T05:33:39;95031.13;;;10.20;100.00
8366;BME280;4220;42.502;24.188;2023-04-24T05:36:06;95023.78;;;10.22;99.66
8366;BME280;4220;42.502;24.188;2023-04-24T05:38:33;95018.03;;;10.25;100.00
8366;BME280;4220;42.502;24.188;2023-04-24T05:41:01;95021.41;;;10.50;97.78
8366;BME280;4220;42.502;24.188;2023-04-24T05:43:28;95030.28;;;10.74;93.74
8366;BME280;4220;42.502;24.188;2023-04-24T05:45:55;95034.41;;;10.88;92.98
8366;BME280;4220;42.502;24.188;2023-04-24T05:48:22;95043.41;;;10.87;91.91
8366;BME280;4220;42.502;24.188;2023-04-24T05:50:49;95047.56;;;10.65;93.27
8366;BME280;4220;42.502;24.188;2023-04-24T05:53:16;95041.50;;;10.76;93.62
8366;BME280;4220;42.502;24.188;2023-04-24T05:55:43;95039.78;;;10.82;93.22
8366;BME280;4220;42.502;24.188;2023-04-24T05:58:12;95033.13;;;10.61;94.21
8366;BME280;4220;42.502;24.188;2023-04-24T06:00:40;94968.63;;;10.13;95.56
8366;BME280;4220;42.502;24.188;2023-04-24T06:03:08;95036.78;;;10.78;94.77
8366;BME280;4220;42.502;24.188;2023-04-24T06:05:35;95043.69;;;10.97;93.52
8366;BME280;4220;42.502;24.188;2023-04-24T06:08:02;95035.28;;;11.00;91.78
8366;BME280;4220;42.502;24.188;2023-04-24T06:10:29;95046.53;;;11.26;91.34
8366;BME280;4220;42.502;24.188;2023-04-24T06:12:56;95047.63;;;11.36;89.60
8366;BME280;4220;42.502;24.188;2023-04-24T06:15:28;95031.22;;;11.39;89.69
8366;BME280;4220;42.502;24.188;2023-04-24T06:17:55;95005.44;;;11.16;90.22
8366;BME280;4220;42.502;24.188;2023-04-24T06:20:23;95040.88;;;11.22;92.92
8366;BME280;4220;42.502;24.188;2023-04-24T06:22:50;95038.44;;;11.21;94.52
8366;BME280;4220;42.502;24.188;2023-04-24T06:25:17;95039.81;;;11.11;96.23
8366;BME280;4220;42.502;24.188;2023-04-24T06:27:44;95043.13;;;11.37;94.71
8366;BME280;4220;42.502;24.188;2023-04-24T06:30:12;95039.47;;;11.61;92.43
8366;BME280;4220;42.502;24.188;2023-04-24T06:32:40;95034.22;;;11.96;89.14
8366;BME280;4220;42.502;24.188;2023-04-24T06:35:08;95040.09;;;12.32;83.64
8366;BME280;4220;42.502;24.188;2023-04-24T06:37:35;95040.16;;;12.72;80.15
8366;BME280;4220;42.502;24.188;2023-04-24T06:40:02;95034.13;;;13.05;76.62
8366;BME280;4220;42.502;24.188;2023-04-24T06:42:29;95037.53;;;13.29;73.53
8366;BME280;4220;42.502;24.188;2023-04-24T06:44:56;95041.97;;;13.40;72.96
8366;BME280;4220;42.502;24.188;2023-04-24T06:47:23;95037.66;;;13.22;72.61
8366;BME280;4220;42.502;24.188;2023-04-24T06:49:51;95035.03;;;12.82;74.82
8366;BME280;4220;42.502;24.188;2023-04-24T06:52:19;95037.19;;;12.57;77.34
8366;BME280;4220;42.502;24.188;2023-04-24T06:54:46;95041.03;;;12.78;77.59
8366;BME280;4220;42.502;24.188;2023-04-24T06:57:13;95041.84;;;12.78;75.21
8366;BME280;4220;42.502;24.188;2023-04-24T06:59:41;95021.13;;;12.92;73.88
8366;BME280;4220;42.502;24.188;2023-04-24T07:02:08;95037.75;;;13.27;71.73
8366;BME280;4220;42.502;24.188;2023-04-24T07:04:35;95043.38;;;13.59;70.05
8366;BME280;4220;42.502;24.188;2023-04-24T07:07:03;95027.41;;;13.75;68.33
8366;BME280;4220;42.502;24.188;2023-04-24T07:09:32;95030.94;;;13.81;67.68
8366;BME280;4220;42.502;24.188;2023-04-24T07:12:00;95042.94;;;13.95;67.97
8366;BME280;4220;42.502;24.188;2023-04-24T07:14:27;95035.53;;;14.19;66.73
8366;BME280;4220;42.502;24.188;2023-04-24T07:16:54;95036.50;;;14.29;66.00
8366;BME280;4220;42.502;24.188;2023-04-24T07:19:22;95033.50;;;14.26;65.33
8366;BME280;4220;42.502;24.188;2023-04-24T07:21:49;95037.81;;;14.27;65.17
8366;BME280;4220;42.502;24.188;2023-04-24T07:24:17;95034.63;;;14.47;65.12
8366;BME280;4220;42.502;24.188;2023-04-24T07:26:44;95039.09;;;14.41;63.82
8366;BME280;4220;42.502;24.188;2023-04-24T07:29:12;95039.28;;;14.34;62.60
8366;BME280;4220;42.502;24.188;2023-04-24T07:31:39;95010.19;;;13.66;64.94
8366;BME280;4220;42.502;24.188;2023-04-24T07:34:07;95019.97;;;13.94;65.60
8366;BME280;4220;42.502;24.188;2023-04-24T07:36:33;94960.03;;;13.97;64.66
8366;BME280;4220;42.502;24.188;2023-04-24T07:39:00;95029.31;;;14.68;63.57
8366;BME280;4220;42.502;24.188;2023-04-24T07:41:29;95031.50;;;14.93;63.68
8366;BME280;4220;42.502;24.188;2023-04-24T07:43:56;95030.66;;;15.14;62.22
8366;BME280;4220;42.502;24.188;2023-04-24T07:46:23;95029.56;;;15.37;61.83
8366;BME280;4220;42.502;24.188;2023-04-24T07:48:50;95020.41;;;15.54;61.16
8366;BME280;4220;42.502;24.188;2023-04-24T07:51:17;95029.66;;;15.74;60.46
8366;BME280;4220;42.502;24.188;2023-04-24T07:53:43;95034.50;;;15.77;59.13
8366;BME280;4220;42.502;24.188;2023-04-24T07:56:10;95041.22;;;15.79;59.92
8366;BME280;4220;42.502;24.188;2023-04-24T07:58:39;95032.56;;;15.67;59.97
8366;BME280;4220;42.502;24.188;2023-04-24T08:01:06;95030.91;;;15.39;61.82
8366;BME280;4220;42.502;24.188;2023-04-24T08:03:33;95016.84;;;15.22;62.24
8366;BME280;4220;42.502;24.188;2023-04-24T08:05:59;95022.63;;;15.41;63.30
8366;BME280;4220;42.502;24.188;2023-04-24T08:08:26;95015.00;;;15.49;64.00
8366;BME280;4220;42.502;24.188;2023-04-24T08:10:53;95020.84;;;15.73;64.28
8366;BME280;4220;42.502;24.188;2023-04-24T08:13:20;95030.66;;;15.94;62.83
8366;BME280;4220;42.502;24.188;2023-04-24T08:15:48;94996.25;;;15.76;62.73
8366;BME280;4220;42.502;24.188;2023-04-24T08:18:15;95025.03;;;15.96;63.15
8366;BME280;4220;42.502;24.188;2023-04-24T08:20:42;95020.88;;;15.78;64.66
8366;BME280;4220;42.502;24.188;2023-04-24T08:23:10;95005.34;;;15.75;64.68
8366;BME280;4220;42.502;24.188;2023-04-24T08:25:37;95000.25;;;15.74;65.21
8366;BME280;4220;42.502;24.188;2023-04-24T08:28:06;95010.50;;;15.82;64.55
8366;BME280;4220;42.502;24.188;2023-04-24T08:30:35;94995.75;;;15.79;64.65
8366;BME280;4220;42.502;24.188;2023-04-24T08:33:03;95014.69;;;16.04;63.58
8366;BME280;4220;42.502;24.188;2023-04-24T08:35:30;95015.34;;;16.21;62.77
8366;BME280;4220;42.502;24.188;2023-04-24T08:37:57;94991.88;;;16.39;63.13
8366;BME280;4220;42.502;24.188;2023-04-24T08:40:27;94997.97;;;16.76;61.82
8366;BME280;4220;42.502;24.188;2023-04-24T08:42:55;94991.03;;;16.80;60.44
8366;BME280;4220;42.502;24.188;2023-04-24T08:45:23;94990.56;;;17.03;60.63
8366;BME280;4220;42.502;24.188;2023-04-24T08:47:52;94982.34;;;17.25;59.92
8366;BME280;4220;42.502;24.188;2023-04-24T08:50:21;94993.41;;;17.63;59.21
8366;BME280;4220;42.502;24.188;2023-04-24T08:52:50;94987.78;;;17.85;57.98
8366;BME280;4220;42.502;24.188;2023-04-24T08:55:19;94974.38;;;17.85;57.36
8366;BME280;4220;42.502;24.188;2023-04-24T08:57:50;94978.63;;;17.91;58.07
8366;BME280;4220;42.502;24.188;2023-04-24T09:00:19;94978.09;;;18.04;57.35
8366;BME280;4220;42.502;24.188;2023-04-24T09:02:48;94966.53;;;18.09;57.28
8366;BME280;4220;42.502;24.188;2023-04-24T09:05:16;94971.34;;;18.32;56.28
8366;BME280;4220;42.502;24.188;2023-04-24T09:07:49;94976.72;;;18.32;55.40
8366;BME280;4220;42.502;24.188;2023-04-24T09:10:20;94967.63;;;18.13;55.88
8366;BME280;4220;42.502;24.188;2023-04-24T09:12:47;94965.50;;;17.95;56.34
8366;BME280;4220;42.502;24.188;2023-04-24T09:15:16;94973.00;;;17.98;56.55
8366;BME280;4220;42.502;24.188;2023-04-24T09:17:43;94967.66;;;17.93;56.79
8366;BME280;4220;42.502;24.188;2023-04-24T09:20:10;94970.84;;;18.05;55.40
8366;BME280;4220;42.502;24.188;2023-04-24T09:22:37;94981.06;;;18.03;54.72
8366;BME280;4220;42.502;24.188;2023-04-24T09:25:07;94974.59;;;18.04;55.26
8366;BME280;4220;42.502;24.188;2023-04-24T09:27:35;94967.63;;;18.08;55.18
8366;BME280;4220;42.502;24.188;2023-04-24T09:30:03;94968.97;;;18.15;54.67
8366;BME280;4220;42.502;24.188;2023-04-24T09:32:30;94955.56;;;18.05;55.35
8366;BME280;4220;42.502;24.188;2023-04-24T09:35:09;94957.44;;;18.00;55.63
8366;BME280;4220;42.502;24.188;2023-04-24T09:37:37;94961.44;;;18.12;55.22
8366;BME280;4220;42.502;24.188;2023-04-24T09:40:14;94953.63;;;18.26;54.39
8366;BME280;4220;42.502;24.188;2023-04-24T09:42:44;94958.97;;;18.46;53.14
8366;BME280;4220;42.502;24.188;2023-04-24T09:45:11;94956.53;;;18.60;52.66
8366;BME280;4220;42.502;24.188;2023-04-24T09:47:38;94947.69;;;18.44;54.00
8366;BME280;4220;42.502;24.188;2023-04-24T09:50:13;94942.63;;;18.33;54.25
8366;BME280;4220;42.502;24.188;2023-04-24T09:52:43;94942.88;;;18.36;53.78
8366;BME280;4220;42.502;24.188;2023-04-24T09:55:13;94931.09;;;18.22;53.59
8366;BME280;4220;42.502;24.188;2023-04-24T09:57:50;94952.00;;;18.45;54.28
8366;BME280;4220;42.502;24.188;2023-04-24T10:00:20;94946.59;;;18.50;53.40
8366;BME280;4220;42.502;24.188;2023-04-24T10:02:54;94887.13;;;18.13;54.00
8366;BME280;4220;42.502;24.188;2023-04-24T10:05:23;94925.38;;;18.44;54.04
8366;BME280;4220;42.502;24.188;2023-04-24T10:07:51;94939.50;;;18.84;53.98
8366;BME280;4220;42.502;24.188;2023-04-24T10:10:19;94933.69;;;19.16;53.33
8366;BME280;4220;42.502;24.188;2023-04-24T10:12:47;94931.72;;;19.27;51.90
8366;BME280;4220;42.502;24.188;2023-04-24T10:15:15;94924.09;;;19.44;50.39
8366;BME280;4220;42.502;24.188;2023-04-24T10:17:47;94923.63;;;19.71;49.68
8366;BME280;4220;42.502;24.188;2023-04-24T10:20:18;94925.19;;;20.05;48.62
8366;BME280;4220;42.502;24.188;2023-04-24T10:22:47;94922.22;;;20.07;48.23
8366;BME280;4220;42.502;24.188;2023-04-24T10:25:16;94922.31;;;20.26;47.65
8366;BME280;4220;42.502;24.188;2023-04-24T10:27:47;94925.66;;;20.65;47.17
8366;BME280;4220;42.502;24.188;2023-04-24T10:30:15;94927.88;;;20.81;46.70
8366;BME280;4220;42.502;24.188;2023-04-24T10:32:42;94922.00;;;20.98;46.36
8366;BME280;4220;42.502;24.188;2023-04-24T10:35:09;94911.91;;;21.27;45.40
8366;BME280;4220;42.502;24.188;2023-04-24T10:37:39;94914.41;;;21.42;45.05
8366;BME280;4220;42.502;24.188;2023-04-24T10:40:08;94909.41;;;21.31;45.02
8366;BME280;4220;42.502;24.188;2023-04-24T10:42:35;94914.66;;;21.41;45.27
8366;BME280;4220;42.502;24.188;2023-04-24T10:45:16;94906.56;;;21.60;44.85
8366;BME280;4220;42.502;24.188;2023-04-24T10:47:43;94909.88;;;21.70;44.96
8366;BME280;4220;42.502;24.188;2023-04-24T10:50:17;94911.00;;;21.69;43.83
8366;BME280;4220;42.502;24.188;2023-04-24T10:52:44;94908.16;;;21.61;43.69
8366;BME280;4220;42.502;24.188;2023-04-24T10:55:13;94899.00;;;21.75;42.54
8366;BME280;4220;42.502;24.188;2023-04-24T10:58:01;94904.06;;;21.82;42.93
8366;BME280;4220;42.502;24.188;2023-04-24T11:00:29;94893.53;;;21.80;43.44
8366;BME280;4220;42.502;24.188;2023-04-24T11:02:57;94901.84;;;21.84;43.55
8366;BME280;4220;42.502;24.188;2023-04-24T11:05:51;94898.13;;;21.80;43.64
8366;BME280;4220;42.502;24.188;2023-04-24T11:08:25;94898.34;;;21.83;43.36
8366;BME280;4220;42.502;24.188;2023-04-24T11:10:58;94898.69;;;21.95;43.00
8366;BME280;4220;42.502;24.188;2023-04-24T11:13:26;94911.13;;;22.10;42.89
8366;BME280;4220;42.502;24.188;2023-04-24T11:16:14;94890.94;;;22.21;42.44
8366;BME280;4220;42.502;24.188;2023-04-24T11:18:42;94845.44;;;21.82;43.51
8366;BME280;4220;42.502;24.188;2023-04-24T11:21:11;94885.09;;;22.00;43.87
8366;BME280;4220;42.502;24.188;2023-04-24T11:23:39;94850.69;;;21.92;43.21
8366;BME280;4220;42.502;24.188;2023-04-24T11:26:13;94882.91;;;22.02;42.81
8366;BME280;4220;42.502;24.188;2023-04-24T11:28:47;94869.22;;;21.48;45.12
8366;BME280;4220;42.502;24.188;2023-04-24T11:31:38;94870.44;;;21.56;44.50
8366;BME280;4220;42.502;24.188;2023-04-24T11:34:10;94877.91;;;21.77;43.75
8366;BME280;4220;42.502;24.188;2023-04-24T11:36:38;94858.00;;;22.19;43.50
8366;BME280;4220;42.502;24.188;2023-04-24T11:39:06;94825.41;;;22.29;42.49
8366;BME280;4220;42.502;24.188;2023-04-24T11:41:33;94851.53;;;22.74;41.88
8366;BME280;4220;42.502;24.188;2023-04-24T11:44:01;94866.72;;;22.84;42.45
8366;BME280;4220;42.502;24.188;2023-04-24T11:46:29;94856.19;;;22.96;41.68
8366;BME280;4220;42.502;24.188;2023-04-24T11:48:58;94847.25;;;23.09;41.56
8366;BME280;4220;42.502;24.188;2023-04-24T11:51:27;94853.63;;;23.13;41.66
8366;BME280;4220;42.502;24.188;2023-04-24T11:53:55;94859.31;;;23.25;40.63
8366;BME280;4220;42.502;24.188;2023-04-24T11:56:22;94841.53;;;23.33;40.73
8366;BME280;4220;42.502;24.188;2023-04-24T11:58:51;94843.19;;;23.20;41.00
8366;BME280;4220;42.502;24.188;2023-04-24T12:01:19;94851.22;;;23.48;40.78
8366;BME280;4220;42.502;24.188;2023-04-24T12:03:47;94845.34;;;23.32;40.54
8366;BME280;4220;42.502;24.188;2023-04-24T12:06:17;94840.16;;;23.00;41.07
8366;BME280;4220;42.502;24.188;2023-04-24T12:08:48;94843.00;;;22.54;42.12
8366;BME280;4220;42.502;24.188;2023-04-24T12:11:16;94824.69;;;22.10;43.15
8366;BME280;4220;42.502;24.188;2023-04-24T12:13:44;94833.00;;;21.68;44.81
8366;BME280;4220;42.502;24.188;2023-04-24T12:16:11;94821.25;;;21.13;46.40
8366;BME280;4220;42.502;24.188;2023-04-24T12:18:43;94817.50;;;20.90;47.51
8366;BME280;4220;42.502;24.188;2023-04-24T12:21:20;94802.28;;;20.80;47.54
8366;BME280;4220;42.502;24.188;2023-04-24T12:23:47;94807.00;;;20.70;47.41
8366;BME280;4220;42.502;24.188;2023-04-24T12:26:17;94791.06;;;20.55;47.42
8366;BME280;4220;42.502;24.188;2023-04-24T12:28:47;94789.75;;;20.90;48.14
8366;BME280;4220;42.502;24.188;2023-04-24T12:31:15;94792.00;;;21.52;46.15
8366;BME280;4220;42.502;24.188;2023-04-24T12:33:42;94789.38;;;21.93;45.22
8366;BME280;4220;42.502;24.188;2023-04-24T12:36:10;94790.47;;;22.19;45.59
8366;BME280;4220;42.502;24.188;2023-04-24T12:38:39;94785.69;;;22.16;44.14
8366;BME280;4220;42.502;24.188;2023-04-24T12:41:13;94773.97;;;22.07;43.60
8366;BME280;4220;42.502;24.188;2023-04-24T12:43:51;94774.25;;;21.78;44.19
8366;BME280;4220;42.502;24.188;2023-04-24T12:46:18;94759.22;;;21.72;44.68
8366;BME280;4220;42.502;24.188;2023-04-24T12:48:45;94769.22;;;21.58;44.68
8366;BME280;4220;42.502;24.188;2023-04-24T12:51:12;94770.59;;;21.56;44.67
8366;BME280;4220;42.502;24.188;2023-04-24T12:53:40;94765.63;;;21.63;44.24
8366;BME280;4220;42.502;24.188;2023-04-24T12:56:07;94780.00;;;21.58;43.63
8366;BME280;4220;42.502;24.188;2023-04-24T12:58:34;94786.28;;;21.40;44.02
8366;BME280;4220;42.502;24.188;2023-04-24T13:01:01;94777.00;;;20.95;44.09
8366;BME280;4220;42.502;24.188;2023-04-24T13:03:28;94786.34;;;20.65;44.96
8366;BME280;4220;42.502;24.188;2023-04-24T13:05:55;94785.22;;;20.29;46.40
8366;BME280;4220;42.502;24.188;2023-04-24T13:08:22;94790.13;;;19.98;48.01
8366;BME280;4220;42.502;24.188;2023-04-24T13:10:50;94796.44;;;19.65;49.05
8366;BME280;4220;42.502;24.188;2023-04-24T13:13:19;94794.69;;;19.50;49.22
8366;BME280;4220;42.502;24.188;2023-04-24T13:15:46;94796.63;;;19.45;49.80